createdAt,value
2023-01-27T00:00:50.774Z,14.85
2023-01-27T00:03:19.203Z,13.48
2023-01-27T00:05:47.538Z,12.98
2023-01-27T00:08:17.369Z,14.18
2023-01-27T00:10:45.640Z,14.35
2023-01-27T00:13:33.617Z,14.60
2023-01-27T00:16:01.648Z,13.60
2023-01-27T00:18:29.636Z,13.98
2023-01-27T00:21:29.413Z,15.23
2023-01-27T00:24:16.610Z,14.07
2023-01-27T00:26:47.332Z,14.32
2023-01-27T00:29:15.347Z,16.23
2023-01-27T00:32:00.907Z,14.82
2023-01-27T00:34:28.900Z,13.52
2023-01-27T00:36:56.789Z,15.45
2023-01-27T00:39:26.115Z,15.65
2023-01-27T00:41:55.240Z,15.15
2023-01-27T00:44:24.997Z,12.27
2023-01-27T00:46:55.400Z,14.52
2023-01-27T00:49:25.099Z,16.00
2023-01-27T00:51:53.363Z,13.55
2023-01-27T00:54:21.400Z,14.88
2023-01-27T00:56:50.888Z,14.93
2023-01-27T00:59:18.920Z,16.67
2023-01-27T01:01:46.862Z,13.43
2023-01-27T01:04:14.897Z,13.57
2023-01-27T01:06:42.926Z,13.68
2023-01-27T01:09:11.178Z,15.88
2023-01-27T01:11:39.157Z,15.82
2023-01-27T01:14:08.613Z,15.98
2023-01-27T01:16:36.584Z,14.23
2023-01-27T01:19:07.447Z,15.25
2023-01-27T01:21:35.586Z,14.98
2023-01-27T01:24:03.812Z,14.85
2023-01-27T01:26:31.785Z,15.95
2023-01-27T01:28:59.809Z,14.60
2023-01-27T01:31:29.366Z,14.40
2023-01-27T01:33:57.302Z,14.27
2023-01-27T01:36:25.375Z,15.60
2023-01-27T01:38:56.785Z,13.90
2023-01-27T01:41:25.869Z,14.50
2023-01-27T01:43:54.346Z,14.25
2023-01-27T01:46:22.488Z,14.20
2023-01-27T01:48:54.698Z,14.43
2023-01-27T01:51:26.110Z,13.50
2023-01-27T01:54:01.017Z,14.63
2023-01-27T01:56:35.846Z,15.20
2023-01-27T01:59:08.808Z,15.60
2023-01-27T02:01:36.919Z,16.25
2023-01-27T02:04:10.406Z,16.58
2023-01-27T02:06:44.860Z,14.27
2023-01-27T02:09:12.960Z,15.52
2023-01-27T02:11:40.987Z,15.45
2023-01-27T02:14:09.041Z,16.20
2023-01-27T02:16:37.528Z,14.48
2023-01-27T02:19:08.872Z,15.15
2023-01-27T02:21:36.946Z,15.30
2023-01-27T02:24:12.349Z,14.90
2023-01-27T02:26:44.695Z,14.25
2023-01-27T02:29:14.525Z,13.77
2023-01-27T02:31:43.020Z,14.25
2023-01-27T02:34:15.540Z,13.93
2023-01-27T02:39:15.700Z,11.88
2023-01-27T02:41:48.860Z,13.70
2023-01-27T02:44:16.876Z,13.35
2023-01-27T02:46:44.940Z,12.27
2023-01-27T02:49:13.273Z,13.07
2023-01-27T02:52:08.032Z,14.00
2023-01-27T02:55:01.317Z,12.18
2023-01-27T02:57:52.610Z,13.65
2023-01-27T03:00:41.571Z,12.95
2023-01-27T03:03:22.160Z,13.18
2023-01-27T03:06:04.099Z,15.85
2023-01-27T03:08:38.965Z,12.32
2023-01-27T03:11:53.289Z,12.43
2023-01-27T03:14:37.508Z,13.30
2023-01-27T03:17:31.906Z,12.25
2023-01-27T03:20:15.586Z,12.38
2023-01-27T03:22:43.967Z,11.88
2023-01-27T03:25:12.325Z,12.43
2023-01-27T03:27:40.904Z,11.52
2023-01-27T03:30:11.597Z,13.18
2023-01-27T03:32:46.835Z,11.68
2023-01-27T03:35:15.559Z,12.25
2023-01-27T03:38:02.800Z,11.98
2023-01-27T03:40:50.202Z,11.52
2023-01-27T03:43:35.620Z,10.57
2023-01-27T03:46:20.148Z,11.90
2023-01-27T03:48:52.616Z,11.73
2023-01-27T03:53:49.816Z,11.32
2023-01-27T03:56:19.256Z,10.65
2023-01-27T03:58:48.993Z,11.88
2023-01-27T04:01:20.006Z,10.73
2023-01-27T04:04:06.592Z,10.63
2023-01-27T04:06:56.404Z,9.35
2023-01-27T04:09:26.010Z,10.63
2023-01-27T04:11:56.243Z,10.48
2023-01-27T04:14:26.323Z,9.55
2023-01-27T04:16:57.205Z,9.40
2023-01-27T04:19:26.942Z,9.80
2023-01-27T04:21:55.890Z,10.15
2023-01-27T04:24:24.143Z,10.15
2023-01-27T04:26:55.409Z,10.45
2023-01-27T04:29:25.121Z,10.27
2023-01-27T04:31:53.432Z,11.20
2023-01-27T04:34:23.127Z,10.38
2023-01-27T04:36:51.515Z,11.10
2023-01-27T04:39:20.183Z,12.00
2023-01-27T04:41:49.107Z,10.77
2023-01-27T04:44:21.017Z,10.52
2023-01-27T04:46:49.860Z,10.02
2023-01-27T04:49:20.045Z,11.48
2023-01-27T04:52:00.064Z,10.35
2023-01-27T04:54:38.748Z,10.48
2023-01-27T04:57:18.594Z,10.25
2023-01-27T05:00:02.711Z,10.95
2023-01-27T05:02:37.603Z,11.00
2023-01-27T05:05:18.416Z,10.55
2023-01-27T05:07:57.105Z,8.77
2023-01-27T05:10:33.497Z,9.90
2023-01-27T05:13:05.575Z,8.32
2023-01-27T05:15:47.262Z,8.98
2023-01-27T05:18:25.539Z,8.95
2023-01-27T05:24:05.418Z,9.23
2023-01-27T05:26:37.323Z,9.10
2023-01-27T05:29:21.781Z,10.20
2023-01-27T05:31:52.995Z,9.25
2023-01-27T05:34:21.069Z,8.50
2023-01-27T05:36:49.313Z,7.18
2023-01-27T05:39:18.873Z,7.65
2023-01-27T05:41:46.925Z,7.55
2023-01-27T05:44:15.067Z,7.78
2023-01-27T05:46:43.626Z,8.07
2023-01-27T05:49:11.703Z,6.50
2023-01-27T05:51:40.773Z,7.35
2023-01-27T05:54:09.405Z,7.88
2023-01-27T05:56:39.247Z,10.10
2023-01-27T05:59:07.686Z,10.50
2023-01-27T06:01:37.372Z,10.50
2023-01-27T06:04:05.885Z,10.73
2023-01-27T06:06:34.748Z,10.98
2023-01-27T06:09:04.976Z,11.57
2023-01-27T06:11:33.108Z,10.88
2023-01-27T06:14:02.492Z,11.43
2023-01-27T06:16:30.574Z,10.98
2023-01-27T06:18:58.791Z,11.10
2023-01-27T06:21:26.903Z,9.18
2023-01-27T06:23:55.941Z,9.57
2023-01-27T06:26:24.120Z,9.98
2023-01-27T06:28:52.136Z,9.60
2023-01-27T06:31:25.255Z,9.43
2023-01-27T06:33:53.478Z,9.55
2023-01-27T06:36:22.900Z,10.90
2023-01-27T06:38:51.668Z,10.80
2023-01-27T06:41:19.952Z,8.98
2023-01-27T06:43:48.140Z,8.38
2023-01-27T06:46:16.355Z,9.88
2023-01-27T06:48:45.913Z,10.40
2023-01-27T06:51:14.231Z,10.30
2023-01-27T06:53:42.187Z,8.30
2023-01-27T06:56:10.282Z,7.97
2023-01-27T06:58:38.271Z,7.20
2023-01-27T07:01:07.399Z,7.95
2023-01-27T07:06:03.728Z,10.70
2023-01-27T07:08:31.690Z,8.07
2023-01-27T07:11:02.816Z,10.23
2023-01-27T07:13:30.814Z,8.25
2023-01-27T07:16:00.266Z,9.85
2023-01-27T07:18:28.264Z,8.75
2023-01-27T07:20:56.281Z,8.82
2023-01-27T07:23:25.623Z,9.40
2023-01-27T07:25:54.410Z,9.05
2023-01-27T07:28:22.535Z,10.75
2023-01-27T07:30:52.745Z,8.65
2023-01-27T07:33:20.706Z,8.50
2023-01-27T07:36:38.288Z,7.40
2023-01-27T07:39:10.689Z,6.90
2023-01-27T07:44:06.464Z,7.43
2023-01-27T07:46:34.474Z,7.18
2023-01-27T07:49:02.656Z,8.48
2023-01-27T07:51:32.814Z,7.45
2023-01-27T07:54:02.092Z,7.72
2023-01-27T07:56:36.487Z,7.82
2023-01-27T07:59:07.133Z,7.90
2023-01-27T08:01:35.129Z,7.65
2023-01-27T08:04:03.167Z,7.68
2023-01-27T08:06:32.586Z,7.07
2023-01-27T08:09:01.465Z,7.85
2023-01-27T08:11:30.919Z,7.40
2023-01-27T08:14:01.554Z,7.95
2023-01-27T08:16:30.194Z,8.32
2023-01-27T08:18:58.211Z,8.45
2023-01-27T08:21:27.578Z,7.90
2023-01-27T08:24:02.321Z,8.00
2023-01-27T08:26:31.836Z,8.93
2023-01-27T08:28:59.843Z,8.23
2023-01-27T08:31:27.834Z,10.32
2023-01-27T08:33:56.404Z,9.77
2023-01-27T08:36:25.731Z,9.85
2023-01-27T08:38:54.120Z,9.35
2023-01-27T08:41:24.857Z,7.97
2023-01-27T08:43:55.816Z,8.57
2023-01-27T08:46:24.039Z,7.30
2023-01-27T08:48:52.058Z,10.30
2023-01-27T08:51:20.162Z,8.63
2023-01-27T08:53:48.286Z,10.32
2023-01-27T08:56:17.026Z,7.13
2023-01-27T08:58:47.272Z,8.18
2023-01-27T09:01:17.331Z,8.27
2023-01-27T09:03:46.029Z,8.25
2023-01-27T09:06:15.068Z,7.38
2023-01-27T09:08:44.148Z,6.85
2023-01-27T09:11:14.410Z,7.40
2023-01-27T09:13:43.065Z,7.38
2023-01-27T09:16:11.356Z,6.85
2023-01-27T09:18:42.413Z,9.90
2023-01-27T09:21:11.636Z,7.47
2023-01-27T09:23:39.581Z,5.43
2023-01-27T09:26:07.682Z,5.05
2023-01-27T09:28:35.805Z,5.78
2023-01-27T09:31:05.776Z,7.03
2023-01-27T09:33:33.885Z,5.00
2023-01-27T09:36:07.653Z,5.15
2023-01-27T09:38:41.614Z,6.40
2023-01-27T09:41:35.139Z,5.32
2023-01-27T09:44:28.168Z,5.25
2023-01-27T09:47:20.219Z,5.15
2023-01-27T09:50:14.972Z,3.35
2023-01-27T09:53:14.219Z,4.07
2023-01-27T09:55:48.226Z,5.07
2023-01-27T09:58:24.839Z,5.88
2023-01-27T10:01:00.739Z,5.82
2023-01-27T10:03:49.085Z,5.30
2023-01-27T10:06:45.477Z,5.65
2023-01-27T10:09:39.065Z,5.88
2023-01-27T10:12:19.465Z,6.05
2023-01-27T10:14:57.540Z,4.22
2023-01-27T10:17:35.906Z,4.80
2023-01-27T10:20:15.173Z,5.22
2023-01-27T10:22:52.882Z,5.97
2023-01-27T10:25:31.802Z,6.22
2023-01-27T10:28:04.281Z,7.65
2023-01-27T10:33:17.427Z,6.40
2023-01-27T10:35:53.475Z,6.72
2023-01-27T10:38:36.666Z,6.63
2023-01-27T10:41:19.109Z,6.00
2023-01-27T10:44:01.571Z,7.38
2023-01-27T10:46:42.336Z,7.82
2023-01-27T10:49:23.068Z,6.95
2023-01-27T10:51:59.200Z,7.85
2023-01-27T10:54:36.742Z,6.45
2023-01-27T10:57:10.308Z,5.75
2023-01-27T10:59:50.252Z,5.57
2023-01-27T11:02:35.121Z,4.72
2023-01-27T11:05:08.531Z,4.28
2023-01-27T11:07:44.475Z,4.38
2023-01-27T11:10:18.649Z,3.75
2023-01-27T11:12:52.562Z,4.05
2023-01-27T11:15:27.459Z,5.20
2023-01-27T11:18:01.644Z,5.40
2023-01-27T11:20:32.237Z,5.22
2023-01-27T11:23:05.151Z,4.57
2023-01-27T11:25:47.739Z,5.75
2023-01-27T11:28:26.264Z,4.85
2023-01-27T11:31:02.748Z,5.15
2023-01-27T11:33:58.238Z,5.50
2023-01-27T11:36:36.431Z,4.70
2023-01-27T11:42:57.353Z,3.90
2023-01-27T11:46:02.324Z,3.78
2023-01-27T11:48:41.322Z,3.63
2023-01-27T11:51:24.254Z,4.05
2023-01-27T11:54:09.359Z,3.88
2023-01-27T12:00:27.615Z,3.67
2023-01-27T12:06:46.439Z,2.65
2023-01-27T12:17:14.403Z,3.55
2023-01-27T12:20:21.156Z,3.20
2023-01-27T12:23:47.486Z,4.15
2023-01-27T12:27:32.363Z,3.40
2023-01-27T12:30:34.582Z,3.15
2023-01-27T12:33:33.768Z,3.75
2023-01-27T12:36:31.611Z,3.22
2023-01-27T12:39:08.070Z,3.95
2023-01-27T12:41:53.094Z,4.13
2023-01-27T12:44:37.937Z,6.05
2023-01-27T12:55:08.246Z,3.97
2023-01-27T12:57:36.624Z,4.20
2023-01-27T13:00:05.310Z,4.95
2023-01-27T13:02:36.343Z,3.88
2023-01-27T13:05:08.154Z,4.68
2023-01-27T13:07:44.778Z,4.78
2023-01-27T13:10:20.363Z,4.78
2023-01-27T13:12:51.629Z,5.53
2023-01-27T13:15:21.319Z,4.90
2023-01-27T13:17:50.885Z,4.65
2023-01-27T13:20:23.380Z,4.63
2023-01-27T13:25:27.558Z,4.50
2023-01-27T13:27:59.175Z,4.72
2023-01-27T13:30:31.793Z,4.83
2023-01-27T13:33:05.143Z,5.47
2023-01-27T13:35:38.345Z,5.30
2023-01-27T13:38:15.615Z,5.25
2023-01-27T13:40:45.810Z,4.57
2023-01-27T13:43:19.894Z,4.53
2023-01-27T13:45:55.416Z,4.80
2023-01-27T13:48:30.929Z,4.15
2023-01-27T13:51:07.663Z,4.13
2023-01-27T13:53:38.195Z,4.20
2023-01-27T13:56:15.961Z,4.05
2023-01-27T13:58:57.113Z,4.22
2023-01-27T14:01:29.865Z,4.40
2023-01-27T14:04:29.728Z,3.83
2023-01-27T14:07:06.918Z,5.45
2023-01-27T14:09:50.123Z,4.60
2023-01-27T14:12:34.952Z,4.35
2023-01-27T14:15:16.492Z,5.72
2023-01-27T14:17:50.046Z,4.13
2023-01-27T14:20:32.672Z,3.83
2023-01-27T14:23:13.870Z,4.38
2023-01-27T14:25:50.326Z,3.67
2023-01-27T14:28:28.001Z,3.83
2023-01-27T14:31:01.765Z,3.35
2023-01-27T14:33:47.979Z,3.38
2023-01-27T14:36:21.487Z,3.38
2023-01-27T14:39:01.997Z,3.53
2023-01-27T14:41:38.235Z,2.88
2023-01-27T14:44:15.590Z,2.88
2023-01-27T14:46:57.148Z,2.83
2023-01-27T14:49:46.531Z,3.63
2023-01-27T14:52:34.531Z,3.08
2023-01-27T14:55:20.288Z,2.85
2023-01-27T14:57:59.718Z,3.33
2023-01-27T15:00:40.611Z,3.65
2023-01-27T15:03:37.328Z,3.03
2023-01-27T15:06:10.957Z,4.15
2023-01-27T15:08:44.218Z,3.20
2023-01-27T15:11:34.905Z,4.90
2023-01-27T15:14:19.343Z,6.40
2023-01-27T15:16:58.713Z,3.67
2023-01-27T15:19:44.969Z,2.78
2023-01-27T15:22:38.373Z,2.65
2023-01-27T15:25:31.038Z,2.40
2023-01-27T15:27:59.606Z,2.42
2023-01-27T15:30:30.722Z,2.60
2023-01-27T15:32:59.282Z,2.88
2023-01-27T15:35:44.882Z,2.20
2023-01-27T15:38:32.597Z,2.22
2023-01-27T15:41:04.827Z,2.78
2023-01-27T15:43:33.738Z,1.70
2023-01-27T15:46:25.161Z,1.25
2023-01-27T15:49:01.833Z,1.60
2023-01-27T15:51:37.398Z,1.20
2023-01-27T15:54:08.230Z,1.90
2023-01-27T15:56:47.145Z,3.40
2023-01-27T15:59:18.787Z,3.13
2023-01-27T16:01:49.576Z,1.90
2023-01-27T16:04:23.162Z,2.35
2023-01-27T16:07:01.897Z,2.28
2023-01-27T16:09:38.668Z,1.95
2023-01-27T16:12:23.763Z,1.67
2023-01-27T16:15:20.373Z,1.70
2023-01-27T16:18:02.077Z,1.48
2023-01-27T16:20:32.447Z,2.00
2023-01-27T16:23:06.570Z,1.33
2023-01-27T16:25:42.715Z,1.83
2023-01-27T16:28:19.044Z,1.90
2023-01-27T16:30:56.381Z,1.50
2023-01-27T16:33:30.491Z,1.70
2023-01-27T16:36:07.445Z,2.13
2023-01-27T16:38:39.103Z,1.52
2023-01-27T16:41:18.080Z,1.70
2023-01-27T16:43:50.783Z,1.40
2023-01-27T16:46:29.206Z,1.40
2023-01-27T16:48:59.110Z,1.17
2023-01-27T16:51:35.210Z,1.63
2023-01-27T16:54:14.045Z,1.15
2023-01-27T16:56:42.047Z,1.40
2023-01-27T16:59:19.191Z,1.52
2023-01-27T17:01:52.807Z,1.75
2023-01-27T17:04:24.370Z,1.52
2023-01-27T17:06:54.208Z,1.27
2023-01-27T17:09:24.363Z,1.13
2023-01-27T17:11:53.754Z,1.90
2023-01-27T17:14:31.268Z,2.40
2023-01-27T17:17:02.095Z,1.50
2023-01-27T17:19:33.789Z,1.80
2023-01-27T17:22:04.318Z,1.60
2023-01-27T17:24:34.360Z,1.60
2023-01-27T17:27:08.632Z,1.90
2023-01-27T17:29:39.199Z,1.35
2023-01-27T17:32:20.479Z,1.45
2023-01-27T17:34:51.520Z,1.50
2023-01-27T17:37:20.940Z,1.58
2023-01-27T17:39:52.993Z,1.40
2023-01-27T17:42:22.156Z,1.40
2023-01-27T17:44:50.611Z,1.27
2023-01-27T17:47:20.974Z,1.52
2023-01-27T17:49:54.448Z,1.65
2023-01-27T17:52:27.581Z,1.60
2023-01-27T17:54:56.249Z,1.38
2023-01-27T17:57:32.286Z,1.33
2023-01-27T18:00:04.976Z,0.90
2023-01-27T18:02:36.165Z,1.35
2023-01-27T18:05:15.202Z,1.35
2023-01-27T18:07:45.563Z,1.10
2023-01-27T18:10:25.251Z,1.70
2023-01-27T18:12:54.917Z,1.55
2023-01-27T18:15:42.590Z,2.03
2023-01-27T18:18:23.413Z,1.70
2023-01-27T18:21:04.885Z,2.15
2023-01-27T18:23:34.977Z,1.50
2023-01-27T18:26:05.359Z,1.63
2023-01-27T18:28:39.024Z,1.90
2023-01-27T18:31:15.729Z,1.50
2023-01-27T18:33:46.331Z,1.60
2023-01-27T18:36:26.073Z,1.90
2023-01-27T18:38:54.555Z,1.30
2023-01-27T18:41:28.982Z,1.83
2023-01-27T18:43:57.215Z,1.88
2023-01-27T18:46:26.838Z,1.80
2023-01-27T18:48:56.019Z,1.55
2023-01-27T18:51:25.628Z,1.48
2023-01-27T18:53:53.688Z,1.80
2023-01-27T18:56:21.816Z,1.80
2023-01-27T18:58:50.090Z,2.10
2023-01-27T19:01:25.836Z,1.67
2023-01-27T19:03:57.364Z,1.60
2023-01-27T19:06:28.842Z,1.57
2023-01-27T19:08:57.016Z,1.30
2023-01-27T19:11:25.055Z,1.70
2023-01-27T19:13:53.162Z,1.80
2023-01-27T19:16:21.512Z,2.22
2023-01-27T19:18:50.074Z,2.22
2023-01-27T19:21:18.211Z,2.17
2023-01-27T19:23:49.465Z,1.63
2023-01-27T19:26:21.058Z,2.08
2023-01-27T19:28:57.908Z,2.13
2023-01-27T19:31:28.327Z,2.63
2023-01-27T19:33:57.794Z,2.83
2023-01-27T19:36:30.794Z,1.98
2023-01-27T19:39:02.496Z,2.17
2023-01-27T19:41:30.631Z,2.30
2023-01-27T19:43:58.624Z,2.28
2023-01-27T19:46:27.248Z,1.88
2023-01-27T19:48:55.316Z,2.58
2023-01-27T19:51:24.137Z,2.10
2023-01-27T19:53:54.282Z,2.08
2023-01-27T19:56:24.770Z,2.22
2023-01-27T19:58:54.120Z,2.28
2023-01-27T20:01:24.938Z,2.45
2023-01-27T20:03:54.191Z,2.50
2023-01-27T20:06:29.227Z,2.70
2023-01-27T20:08:59.759Z,2.75
2023-01-27T20:11:34.365Z,2.60
2023-01-27T20:14:03.462Z,2.50
2023-01-27T20:16:31.569Z,2.42
2023-01-27T20:19:00.222Z,2.53
2023-01-27T20:21:28.645Z,2.75
2023-01-27T20:23:59.254Z,3.10
2023-01-27T20:26:29.551Z,3.10
2023-01-27T20:28:58.941Z,2.78
2023-01-27T20:31:27.436Z,2.33
2023-01-27T20:33:55.692Z,2.80
2023-01-27T20:36:25.114Z,2.90
2023-01-27T20:38:53.826Z,3.33
2023-01-27T20:41:23.276Z,3.75
2023-01-27T20:43:58.620Z,3.00
2023-01-27T20:46:29.676Z,3.35
2023-01-27T20:48:59.320Z,3.35
2023-01-27T20:51:29.647Z,3.47
2023-01-27T20:54:00.782Z,4.00
2023-01-27T20:56:28.783Z,4.18
2023-01-27T20:58:56.762Z,3.53
2023-01-27T21:01:25.247Z,3.90
2023-01-27T21:03:54.675Z,3.20
2023-01-27T21:06:25.482Z,3.08
2023-01-27T21:08:56.118Z,3.22
2023-01-27T21:11:24.155Z,3.40
2023-01-27T21:13:53.201Z,3.15
2023-01-27T21:16:21.489Z,3.50
2023-01-27T21:18:49.569Z,3.63
2023-01-27T21:21:27.441Z,3.45
2023-01-27T21:23:57.191Z,3.63
2023-01-27T21:26:25.868Z,3.97
2023-01-27T21:29:04.851Z,4.80
2023-01-27T21:31:34.142Z,4.97
2023-01-27T21:34:04.209Z,3.88
2023-01-27T21:36:33.652Z,4.95
2023-01-27T21:39:02.470Z,4.65
2023-01-27T21:41:47.764Z,4.72
2023-01-27T21:44:36.890Z,3.88
2023-01-27T21:47:08.656Z,3.90
2023-01-27T21:49:58.376Z,3.33
2023-01-27T21:52:31.878Z,4.22
2023-01-27T21:55:00.247Z,5.07
2023-01-27T21:57:29.162Z,4.20
2023-01-27T21:59:57.685Z,4.30
2023-01-27T22:02:26.593Z,5.65
2023-01-27T22:04:55.911Z,4.47
2023-01-27T22:07:27.526Z,4.68
2023-01-27T22:09:57.228Z,5.03
2023-01-27T22:12:28.165Z,5.03
2023-01-27T22:14:56.316Z,4.47
2023-01-27T22:17:30.935Z,4.70
2023-01-27T22:20:06.120Z,3.55
2023-01-27T22:22:34.431Z,4.47
2023-01-27T22:25:04.049Z,3.83
2023-01-27T22:27:35.096Z,4.13
2023-01-27T22:30:03.135Z,4.28
2023-01-27T22:32:35.616Z,4.53
2023-01-27T22:35:03.993Z,4.60
2023-01-27T22:37:32.118Z,4.65
2023-01-27T22:40:00.314Z,4.03
2023-01-27T22:42:30.512Z,4.82
2023-01-27T22:45:00.337Z,5.03
2023-01-27T22:47:28.990Z,3.33
2023-01-27T22:49:57.121Z,3.53
2023-01-27T22:52:25.295Z,3.35
2023-01-27T22:54:53.375Z,3.83
2023-01-27T22:57:21.763Z,3.30
2023-01-27T22:59:54.470Z,3.67
2023-01-27T23:02:23.012Z,3.17
2023-01-27T23:04:50.913Z,3.25
2023-01-27T23:07:18.783Z,3.83
2023-01-27T23:09:48.616Z,3.05
2023-01-27T23:12:16.976Z,3.08
2023-01-27T23:14:44.966Z,3.53
2023-01-27T23:17:14.260Z,4.10
2023-01-27T23:19:42.322Z,3.45
2023-01-27T23:22:10.379Z,3.67
2023-01-27T23:24:38.980Z,3.33
2023-01-27T23:27:09.975Z,4.10
2023-01-27T23:29:37.889Z,5.07
2023-01-27T23:32:06.076Z,4.50
2023-01-27T23:34:35.569Z,4.18
2023-01-27T23:37:03.735Z,5.10
2023-01-27T23:39:31.815Z,4.65
2023-01-27T23:41:59.704Z,4.18
2023-01-27T23:44:27.670Z,3.42
2023-01-27T23:46:55.615Z,3.47
2023-01-27T23:49:23.555Z,4.18
2023-01-27T23:51:52.924Z,2.60
2023-01-27T23:54:20.892Z,3.00
2023-01-27T23:56:49.074Z,2.85
2023-01-27T23:59:17.161Z,3.47
